logo dgac
Martes 16 de Julio del 2019
Buscar por aerodromo o helipuerto
Ingrese nombre de aeródromo, localidad o designador OACI:
TAF: TAF SCRD 161212Z 1612/1624 15005KT 3000 BR SCT008 TX18/1618Z TN10 /1612Z TEMPO 1612/1614 0500 FG BKN002 BECMG 1615/1617 18012KT CAVOK
TAF del 16/07/2019 a las 12:12 UTC
Período de validez: desde el 16 a las 12:00 UTC hasta el 16 a las 24:00 UTC
Viento: dirección 150 grados, velocidad 5 nudos
Visibilidad: 3000 metros
Neblina
Nubes: Nubosidad parcial a 800 pies sobre el nivel del aeródromo
Temperatura máxima: 18ºC el 16 a las 18:00 UTC
Nan: TN10
Nan: /1612Z
Se espera en forma temporal entre las 12:00 UTC del 16 y las 14:00 UTC del 16:
Visibilidad: 500 metros
Niebla
Nubes: Nublado a 200 pies sobre el nivel del aeródromo
Se espera un cambio entre las 15:00 UTC del 16 y las 17:00 UTC del 16, :
Viento: dirección 180 grados, velocidad 12 nudos
Visibilidad: 10 km o más,
    sin nubes bajo los 5.000 pies o bajo del MSA (Mínimo de Seguridad del Aeródromo),
    sin cumulonimbus, y sin fenómenos de tiempo significativo en el aeródromo o alrededores